KNLC/NLC METAR and TAF weather

Enter ICAO airport designator
Station Type Date Time Source
KNLC METAR 2020/03/29 13:56 UTC NOAA

KNLC 291356Z AUTO 33003KT 9SM FEW038 OVC047 09/08 A3013 RMK AO2 SLP204 T00940083


Station Type Date Time Source
KNLC Decoded METAR 2020/03/29 13:56 UTC NOAA

LEMOORE NAVAL AIR STATION, CA, United States (KNLC) 36-20N 119-57W 72M
Mar 29, 2020 - 09:56 AM EDT / 2020.03.29 1356 UTC
Wind: from the NNW (330 degrees) at 3 MPH (3 KT):0
Visibility: 9 mile(s):0
Sky conditions: overcast
Temperature: 48.9 F (9.4 C)
Dew Point: 46.9 F (8.3 C)
Relative Humidity: 92%
Pressure (altimeter): 30.13 in. Hg (1020 hPa)
ob: KNLC 291356Z AUTO 33003KT 9SM FEW038 OVC047 09/08 A3013 RMK AO2 SLP204 T00940083
cycle: 14

Station Type Date Time Source
KNLC TAF 2020/03/28 23:12 UTC NOAA

TAF TAF KNLC 2823/2923 33008KT 8000 HZ SCT050 BKN090 640909 QNH3008INS
BECMG 2902/2903 33007KT 9999 VCSH SCT020 BKN050 640509 641404 QNH3009INS
TEMPO 2903/2908 9000 -RA BR BKN020 BKN050
BECMG 2908/2909 VRB06KT 8000 -RA BR SCT020 BKN050 BKN090 640509 641404 QNH3008INS
FM291700 33007KT 9999 VCSH SCT025 BKN050 BKN090 640509 641404 QNH3006INS LAST NO
AMDS AFT 2901 NEXT 2915 T05/2913Z T18/2923Z FS30164

Example: see airport list